Time;durP1;ratioP1;P1;durP2;ratioP2;P2;SDS_P1;SDS_P2;PMS_P1;PMS_P2;Temp;Humidity;BMP_temperature;BMP_pressure;BME280_temperature;BME280_humidity;BME280_pressure;Samples;Min_cycle;Max_cycle;Signal;HPM_P1;HPM_P2
2021/10/12 00:00:57;;;;;;;51.38;32.55;;;;;;;10.70;89.58;100396.56;5099002;28;20028;-61
2021/10/12 00:03:22;;;;;;;53.55;31.58;;;;;;;10.68;89.52;100393.34;5099040;28;20054;-61
2021/10/12 00:05:47;;;;;;;49.95;31.13;;;;;;;10.68;89.96;100403.75;5098673;28;20020;-61
2021/10/12 00:08:13;;;;;;;51.83;30.42;;;;;;;10.67;89.87;100405.78;5099195;28;20032;-61
2021/10/12 00:10:38;;;;;;;49.78;31.50;;;;;;;10.69;89.65;100399.78;5098324;28;20024;-61
2021/10/12 00:13:04;;;;;;;43.13;29.48;;;;;;;10.69;89.72;100388.53;5098656;28;20423;-60
2021/10/12 00:15:29;;;;;;;46.55;30.45;;;;;;;10.68;89.53;100407.41;5098449;28;20094;-61
2021/10/12 00:17:55;;;;;;;49.22;30.83;;;;;;;10.66;89.40;100401.34;5095765;28;20028;-61
2021/10/12 00:20:20;;;;;;;51.58;31.05;;;;;;;10.65;89.94;100405.38;5087168;28;20427;-61
2021/10/12 00:22:46;;;;;;;48.30;31.58;;;;;;;10.64;89.99;100403.78;5098469;28;20028;-61
2021/10/12 00:25:11;;;;;;;46.70;30.20;;;;;;;10.63;90.09;100404.19;5098384;28;20016;-61
2021/10/12 00:27:37;;;;;;;47.92;30.73;;;;;;;10.62;89.61;100388.53;5098166;28;20024;-61
2021/10/12 00:30:05;;;;;;;49.67;29.85;;;;;;;10.57;89.92;100386.91;5098221;28;20024;-61
2021/10/12 00:32:30;;;;;;;49.17;31.08;;;;;;;10.53;90.21;100381.31;5098954;28;20089;-60
2021/10/12 00:34:55;;;;;;;44.42;29.48;;;;;;;10.55;90.58;100380.91;5098108;28;20068;-61
2021/10/12 00:37:21;;;;;;;45.30;29.25;;;;;;;10.55;91.03;100377.28;5098212;28;20047;-60
2021/10/12 00:39:46;;;;;;;48.78;30.88;;;;;;;10.54;90.72;100382.09;5097944;28;20032;-61
2021/10/12 00:42:12;;;;;;;49.90;32.88;;;;;;;10.52;91.11;100367.66;5097753;28;20035;-61
2021/10/12 00:44:38;;;;;;;45.30;30.63;;;;;;;10.51;91.41;100366.06;5097980;28;20411;-61
2021/10/12 00:47:03;;;;;;;48.53;31.42;;;;;;;10.49;91.31;100362.84;5097856;28;20059;-61
2021/10/12 00:49:29;;;;;;;49.28;32.25;;;;;;;10.49;91.20;100362.84;5097840;28;20060;-61
2021/10/12 00:51:54;;;;;;;51.70;31.98;;;;;;;10.50;91.68;100362.44;5097887;28;20420;-61
2021/10/12 00:54:20;;;;;;;51.30;31.20;;;;;;;10.49;91.56;100360.03;5098032;28;20043;-60
2021/10/12 00:56:46;;;;;;;48.58;31.33;;;;;;;10.49;91.00;100346.78;5097396;28;20028;-60
2021/10/12 00:59:11;;;;;;;53.05;31.23;;;;;;;10.48;91.32;100350.81;5097965;28;20039;-61
2021/10/12 01:01:38;;;;;;;47.05;31.52;;;;;;;10.48;91.83;100353.63;5097404;28;20401;-61
2021/10/12 01:04:07;;;;;;;50.60;31.77;;;;;;;10.47;91.85;100349.22;5097716;28;20125;-60
2021/10/12 01:06:32;;;;;;;49.00;32.25;;;;;;;10.48;91.38;100355.63;5097691;28;20028;-61
2021/10/12 01:08:58;;;;;;;48.80;31.80;;;;;;;10.48;91.16;100356.44;5097617;28;20023;-61
2021/10/12 01:11:23;;;;;;;50.20;32.20;;;;;;;10.48;90.92;100348.00;5096924;28;20024;-61
2021/10/12 01:13:48;;;;;;;52.28;32.75;;;;;;;10.48;91.12;100352.81;5095499;28;20032;-60
2021/10/12 01:16:15;;;;;;;53.75;31.25;;;;;;;10.47;90.77;100345.59;5097317;28;20480;-61
2021/10/12 01:18:40;;;;;;;51.25;30.48;;;;;;;10.43;91.10;100336.38;5079743;28;20024;-61
2021/10/12 01:21:06;;;;;;;46.55;29.00;;;;;;;10.45;91.66;100345.19;5079276;28;20503;-61
2021/10/12 01:23:31;;;;;;;44.67;30.13;;;;;;;10.44;91.86;100340.78;5097332;28;20311;-61
2021/10/12 01:25:56;;;;;;;51.67;31.27;;;;;;;10.42;91.43;100335.56;5096948;28;20118;-61
2021/10/12 01:28:22;;;;;;;50.55;30.25;;;;;;;10.39;91.73;100338.34;5097137;28;20020;-61
2021/10/12 01:30:47;;;;;;;47.08;28.80;;;;;;;10.35;91.61;100340.38;5096873;28;20039;-61
2021/10/12 01:33:13;;;;;;;47.92;30.67;;;;;;;10.32;91.55;100332.75;5097354;28;20087;-61
2021/10/12 01:35:39;;;;;;;41.92;29.88;;;;;;;10.31;91.78;100331.16;5075794;28;20119;-61
2021/10/12 01:38:04;;;;;;;49.33;30.63;;;;;;;10.29;91.95;100330.75;5097233;28;20060;-61
2021/10/12 01:40:29;;;;;;;49.25;31.27;;;;;;;10.29;92.36;100330.75;5096680;28;20020;-61
2021/10/12 01:42:57;;;;;;;48.65;29.33;;;;;;;10.25;91.92;100327.94;5096819;28;20149;-61
2021/10/12 01:45:24;;;;;;;44.55;29.65;;;;;;;10.25;91.64;100327.13;5096764;28;20032;-57
2021/10/12 01:47:52;;;;;;;41.08;28.55;;;;;;;10.23;91.24;100321.13;5096497;28;20060;-60
2021/10/12 01:50:18;;;;;;;41.13;27.05;;;;;;;10.21;91.24;100327.16;5079643;28;20150;-60
2021/10/12 01:52:43;;;;;;;43.15;28.27;;;;;;;10.20;91.11;100331.13;5096419;28;20104;-60
2021/10/12 01:55:09;;;;;;;47.03;27.90;;;;;;;10.20;90.82;100322.69;5078809;28;20020;-60
2021/10/12 01:57:35;;;;;;;43.55;29.55;;;;;;;10.20;91.19;100322.69;5096609;28;20323;-60
2021/10/12 02:00:00;;;;;;;40.72;27.75;;;;;;;10.18;90.99;100311.88;5078517;28;20020;-60
2021/10/12 02:02:25;;;;;;;37.70;25.98;;;;;;;10.15;90.52;100309.88;5096625;28;20419;-60
2021/10/12 02:04:51;;;;;;;39.60;25.67;;;;;;;10.13;90.69;100303.81;5096622;28;20177;-56
2021/10/12 02:07:16;;;;;;;42.75;27.23;;;;;;;10.11;90.38;100309.03;5096495;28;20084;-60
2021/10/12 02:09:42;;;;;;;45.10;28.80;;;;;;;10.10;90.85;100298.22;5096243;28;20038;-60
2021/10/12 02:12:08;;;;;;;48.85;29.10;;;;;;;10.09;90.38;100299.41;5096102;28;20020;-60
2021/10/12 02:14:33;;;;;;;44.75;28.88;;;;;;;10.09;90.84;100311.47;5096375;28;20028;-60
2021/10/12 02:16:59;;;;;;;48.63;29.63;;;;;;;10.07;90.33;100297.00;5078114;28;20024;-60
2021/10/12 02:19:24;;;;;;;42.13;29.23;;;;;;;10.05;90.65;100296.63;5096276;28;20026;-62
2021/10/12 02:21:50;;;;;;;43.00;28.65;;;;;;;10.04;90.30;100294.22;5096041;28;20026;-60
2021/10/12 02:24:15;;;;;;;43.80;29.45;;;;;;;10.01;90.40;100307.03;5095904;28;20296;-60
2021/10/12 02:26:41;;;;;;;46.47;29.38;;;;;;;9.99;90.47;100295.41;5078220;28;20020;-60
2021/10/12 02:29:06;;;;;;;45.85;29.27;;;;;;;10.00;90.70;100293.41;5095931;28;20455;-61
2021/10/12 02:31:31;;;;;;;47.38;30.20;;;;;;;10.00;90.65;100297.03;5095872;28;20024;-60
2021/10/12 02:33:57;;;;;;;42.70;28.17;;;;;;;9.99;90.66;100284.19;5095879;28;20035;-60
2021/10/12 02:36:23;;;;;;;47.13;29.77;;;;;;;9.98;90.99;100284.59;5096135;28;20024;-60
2021/10/12 02:38:48;;;;;;;45.67;29.58;;;;;;;10.00;90.85;100302.63;5095561;28;20023;-61
2021/10/12 02:41:14;;;;;;;50.25;30.65;;;;;;;9.98;90.57;100298.63;5095875;28;20099;-60
2021/10/12 02:43:39;;;;;;;43.72;29.45;;;;;;;9.99;90.81;100306.66;5095862;28;20027;-61
2021/10/12 02:46:04;;;;;;;44.10;29.48;;;;;;;9.97;90.89;100292.22;5095639;28;20036;-61
2021/10/12 02:48:30;;;;;;;44.38;29.90;;;;;;;9.94;90.91;100287.41;5095591;28;20048;-61
2021/10/12 02:50:55;;;;;;;44.17;29.88;;;;;;;9.95;91.18;100289.00;5096044;28;20070;-61
2021/10/12 02:53:21;;;;;;;43.47;29.00;;;;;;;9.92;91.01;100284.19;5095613;28;20023;-61
2021/10/12 02:55:46;;;;;;;41.85;28.25;;;;;;;9.93;90.68;100279.38;5095432;28;20031;-61
2021/10/12 02:58:12;;;;;;;41.85;28.38;;;;;;;9.93;91.05;100283.00;5095873;28;20027;-61
2021/10/12 03:00:37;;;;;;;41.25;26.52;;;;;;;9.91;90.53;100268.56;5095726;28;20334;-61
2021/10/12 03:03:03;;;;;;;40.70;27.25;;;;;;;9.87;90.54;100264.94;5095519;28;20073;-61
2021/10/12 03:05:29;;;;;;;38.50;27.55;;;;;;;9.85;90.60;100264.53;5095438;28;20316;-62
2021/10/12 03:07:54;;;;;;;41.42;26.73;;;;;;;9.83;90.29;100270.53;5095280;28;20028;-61
2021/10/12 03:10:20;;;;;;;42.00;27.17;;;;;;;9.84;90.81;100276.94;5095765;28;20112;-61
2021/10/12 03:12:46;;;;;;;38.88;26.35;;;;;;;9.83;90.31;100275.34;5095209;28;20419;-61
2021/10/12 03:15:11;;;;;;;43.10;26.52;;;;;;;9.81;90.65;100277.75;5094022;28;20051;-61
2021/10/12 03:17:37;;;;;;;39.30;26.67;;;;;;;9.76;89.99;100281.78;5095196;28;20326;-61
2021/10/12 03:20:04;;;;;;;36.50;26.50;;;;;;;9.77;90.11;100291.00;5095102;28;20128;-60
2021/10/12 03:22:30;;;;;;;39.25;25.05;;;;;;;9.72;89.76;100288.59;5077389;28;20024;-60
2021/10/12 03:24:55;;;;;;;35.33;24.77;;;;;;;9.70;89.90;100289.00;5098607;28;20434;-61
2021/10/12 03:27:20;;;;;;;39.83;25.95;;;;;;;9.70;90.02;100289.00;5098967;28;20077;-60
2021/10/12 03:29:46;;;;;;;34.60;24.75;;;;;;;9.67;90.21;100283.38;5081426;28;20407;-61
2021/10/12 03:32:12;;;;;;;36.95;25.27;;;;;;;9.68;90.04;100290.59;5091900;28;20486;-61
2021/10/12 03:34:37;;;;;;;36.53;26.10;;;;;;;9.67;90.20;100297.41;5099194;28;20027;-61
2021/10/12 03:37:03;;;;;;;36.80;24.70;;;;;;;9.66;89.74;100298.59;5099191;28;20085;-61
2021/10/12 03:39:30;;;;;;;34.50;24.58;;;;;;;9.63;90.16;100299.41;5073590;28;20016;-61
2021/10/12 03:41:56;;;;;;;38.22;24.48;;;;;;;9.61;90.13;100302.63;5099347;28;20024;-52
2021/10/12 03:44:23;;;;;;;36.22;24.83;;;;;;;9.59;90.16;100303.00;5098920;28;20024;-61
2021/10/12 03:46:50;;;;;;;35.85;23.55;;;;;;;9.58;89.88;100298.56;5089651;28;20076;-61
2021/10/12 03:49:15;;;;;;;35.30;23.02;;;;;;;9.58;89.84;100306.19;5095399;28;20028;-60
2021/10/12 03:51:43;;;;;;;37.85;24.88;;;;;;;9.55;89.57;100304.19;5080752;28;20016;-54
2021/10/12 03:54:10;;;;;;;33.05;22.30;;;;;;;9.53;89.58;100296.16;5098993;28;20048;-61
2021/10/12 03:56:35;;;;;;;30.52;21.75;;;;;;;9.51;89.49;100298.56;5098970;28;20423;-54
2021/10/12 03:59:00;;;;;;;36.25;22.92;;;;;;;9.53;89.23;100300.97;5098800;28;20066;-60
2021/10/12 04:01:26;;;;;;;31.92;22.42;;;;;;;9.51;89.39;100292.97;5098639;28;20407;-60
2021/10/12 04:03:53;;;;;;;37.50;22.45;;;;;;;9.49;89.29;100289.75;5098052;28;20059;-61
2021/10/12 04:06:18;;;;;;;33.30;21.17;;;;;;;9.51;89.69;100290.16;5098394;28;20016;-61
2021/10/12 04:08:44;;;;;;;30.23;21.70;;;;;;;9.50;89.16;100293.34;5080798;28;20107;-61
2021/10/12 04:11:10;;;;;;;30.75;21.20;;;;;;;9.48;88.53;100301.38;5098573;28;20020;-60
2021/10/12 04:13:35;;;;;;;32.13;20.70;;;;;;;9.49;88.54;100303.78;5098500;28;20331;-60
2021/10/12 04:16:00;;;;;;;30.45;20.08;;;;;;;9.51;88.67;100298.56;5080672;28;20123;-59
2021/10/12 04:18:26;;;;;;;28.02;19.05;;;;;;;9.50;88.48;100284.94;5098123;28;20035;-60
2021/10/12 04:20:51;;;;;;;28.52;18.85;;;;;;;9.50;88.19;100288.53;5078837;28;20039;-60
2021/10/12 04:23:17;;;;;;;28.48;19.58;;;;;;;9.47;87.71;100280.94;5098453;28;20039;-61
2021/10/12 04:25:42;;;;;;;27.42;19.02;;;;;;;9.45;87.54;100276.91;5098252;28;20533;-61
2021/10/12 04:28:12;;;;;;;29.27;19.00;;;;;;;9.44;87.13;100266.91;5098524;28;20027;-60
2021/10/12 04:30:42;;;;;;;31.10;19.20;;;;;;;9.41;86.70;100270.50;5080032;28;20089;-60
2021/10/12 04:33:08;;;;;;;28.35;19.65;;;;;;;9.41;87.37;100281.72;5098283;28;20423;-61
2021/10/12 04:35:34;;;;;;;29.60;19.20;;;;;;;9.39;87.41;100276.50;5097653;28;20020;-61
2021/10/12 04:38:00;;;;;;;35.03;19.63;;;;;;;9.38;87.32;100272.09;5098019;28;20032;-61
2021/10/12 04:40:25;;;;;;;28.25;18.23;;;;;;;9.35;87.14;100272.09;5098145;28;20039;-60
2021/10/12 04:42:52;;;;;;;27.88;17.98;;;;;;;9.29;87.08;100274.47;5075087;28;20284;-62
2021/10/12 04:45:17;;;;;;;30.45;20.35;;;;;;;9.31;86.95;100277.69;5079146;28;20108;-60
2021/10/12 04:47:43;;;;;;;26.60;18.85;;;;;;;9.30;86.85;100274.06;5097146;28;20413;-61
2021/10/12 04:50:09;;;;;;;32.40;19.35;;;;;;;9.31;86.89;100286.09;5097630;28;20428;-60
2021/10/12 04:52:34;;;;;;;32.97;20.13;;;;;;;9.27;86.95;100274.06;5092045;28;20116;-61
2021/10/12 04:54:59;;;;;;;31.23;19.40;;;;;;;9.28;86.79;100278.47;5095179;28;20419;-61
2021/10/12 04:57:25;;;;;;;29.77;20.27;;;;;;;9.27;87.36;100274.06;5088858;28;20028;-61
2021/10/12 04:59:50;;;;;;;28.80;20.08;;;;;;;9.26;87.50;100278.06;5094742;28;20107;-61
2021/10/12 05:02:16;;;;;;;30.83;18.42;;;;;;;9.25;86.70;100279.28;5096513;28;20016;-53
2021/10/12 05:04:41;;;;;;;30.20;18.58;;;;;;;9.20;87.09;100271.25;5097033;28;20330;-60
2021/10/12 05:07:06;;;;;;;31.67;18.65;;;;;;;9.19;86.71;100270.44;5095528;28;20078;-61
2021/10/12 05:09:32;;;;;;;29.15;18.70;;;;;;;9.17;87.19;100277.66;5097241;28;20028;-61
2021/10/12 05:11:57;;;;;;;28.17;18.23;;;;;;;9.17;86.68;100289.66;5097429;28;20311;-61
2021/10/12 05:14:22;;;;;;;28.80;18.25;;;;;;;9.14;87.33;100284.06;5097473;28;20334;-61
2021/10/12 05:16:50;;;;;;;32.35;17.75;;;;;;;9.13;86.42;100288.84;5096700;28;20030;-56
2021/10/12 05:19:16;;;;;;;31.63;19.20;;;;;;;9.10;86.71;100289.66;5097356;28;20058;-61
2021/10/12 05:21:41;;;;;;;27.90;18.17;;;;;;;9.09;86.83;100298.47;5097282;28;20377;-62
2021/10/12 05:24:06;;;;;;;31.90;19.23;;;;;;;9.06;86.12;100307.66;5097052;28;20081;-60
2021/10/12 05:26:32;;;;;;;27.65;17.73;;;;;;;9.05;86.31;100298.44;5079329;28;20032;-61
2021/10/12 05:28:58;;;;;;;33.15;18.33;;;;;;;9.03;86.69;100298.00;5097153;28;20031;-60
2021/10/12 05:31:23;;;;;;;26.85;17.17;;;;;;;9.03;86.17;100289.59;5097184;28;20289;-62
2021/10/12 05:33:49;;;;;;;26.55;17.02;;;;;;;9.02;86.00;100295.59;5096780;28;20046;-61
2021/10/12 05:36:15;;;;;;;27.30;16.95;;;;;;;9.01;86.07;100296.81;5097231;28;20019;-61
2021/10/12 05:38:41;;;;;;;25.55;17.42;;;;;;;8.99;85.74;100300.81;5096908;28;20024;-61
2021/10/12 05:41:10;;;;;;;24.73;16.80;;;;;;;9.01;85.79;100305.22;5096847;28;20103;-55
2021/10/12 05:43:35;;;;;;;28.50;15.63;;;;;;;8.98;85.88;100302.00;5097046;28;20032;-61
2021/10/12 05:46:01;;;;;;;23.20;15.88;;;;;;;8.97;86.25;100297.59;5078231;28;20040;-61
2021/10/12 05:48:27;;;;;;;27.85;17.15;;;;;;;8.98;85.72;100293.59;5096470;28;20038;-60
2021/10/12 05:50:52;;;;;;;25.55;16.33;;;;;;;8.96;86.09;100296.00;5096862;28;20024;-54
2021/10/12 05:56:24;;;;;;;25.35;16.13;;;;;;;8.90;85.29;100289.16;4995248;28;20022;-61
2021/10/12 05:58:50;;;;;;;;;;;;;;;8.89;85.51;100290.38;5060706;28;20123;-60
2021/10/12 06:01:21;;;;;;;26.00;15.88;;;;;;;8.88;85.79;100304.78;5096335;28;20355;-62
2021/10/12 06:03:47;;;;;;;;;;;;;;;8.87;85.56;100315.19;5079185;28;20089;-61
2021/10/12 06:06:13;;;;;;;27.90;18.55;;;;;;;8.88;85.33;100308.38;5096200;28;19916;-61
2021/10/12 06:08:39;;;;;;;30.77;19.25;;;;;;;8.87;85.85;100315.19;5096743;28;20028;-54
2021/10/12 06:11:07;;;;;;;24.50;16.85;;;;;;;8.89;85.16;100310.00;5096660;28;20023;-61
2021/10/12 06:13:33;;;;;;;22.42;15.23;;;;;;;8.91;85.72;100318.81;5078892;28;20020;-61
2021/10/12 06:15:59;;;;;;;26.98;14.85;;;;;;;8.94;84.82;100315.22;5096152;28;20088;-61
2021/10/12 06:18:26;;;;;;;26.60;16.73;;;;;;;9.03;85.62;100314.03;5096484;28;20103;-61
2021/10/12 06:20:52;;;;;;;24.00;14.00;;;;;;;9.10;85.20;100316.88;5096123;28;20012;-60
2021/10/12 06:23:19;;;;;;;30.23;16.08;;;;;;;9.16;84.64;100307.69;5096187;28;20031;-61
2021/10/12 06:25:45;;;;;;;26.42;16.80;;;;;;;9.32;84.75;100324.19;5095998;28;20396;-61
2021/10/12 06:28:13;;;;;;;28.15;17.30;;;;;;;9.48;84.06;100321.00;5096344;28;20031;-61
2021/10/12 06:30:39;;;;;;;23.17;15.48;;;;;;;9.66;84.17;100315.44;5095465;28;20422;-61
2021/10/12 06:33:04;;;;;;;26.00;15.80;;;;;;;9.83;83.90;100312.66;5096229;28;20036;-55
2021/10/12 06:35:31;;;;;;;28.58;16.67;;;;;;;10.01;82.77;100307.03;5095851;28;20319;-61
2021/10/12 06:37:57;;;;;;;23.63;15.65;;;;;;;10.15;81.56;100309.88;5095960;28;20024;-61
2021/10/12 06:40:23;;;;;;;25.10;16.13;;;;;;;10.29;81.20;100308.28;5096055;28;20407;-61
2021/10/12 06:42:48;;;;;;;25.63;16.95;;;;;;;10.44;80.39;100321.91;5095703;28;20111;-61
2021/10/12 06:45:16;;;;;;;23.38;15.90;;;;;;;10.56;79.88;100317.06;5077723;28;20057;-56
2021/10/12 06:47:41;;;;;;;24.95;16.77;;;;;;;10.70;78.75;100322.66;5094430;28;20120;-60
2021/10/12 06:50:07;;;;;;;25.88;15.95;;;;;;;10.86;78.63;100320.19;5095987;28;20028;-61
2021/10/12 06:52:32;;;;;;;27.83;16.63;;;;;;;11.07;77.91;100319.34;5095516;28;20031;-61
2021/10/12 06:54:58;;;;;;;31.25;18.50;;;;;;;11.29;77.16;100320.03;5095825;28;20054;-61
2021/10/12 06:57:23;;;;;;;29.77;17.83;;;;;;;11.56;77.08;100323.13;5095767;28;20027;-60
2021/10/12 06:59:48;;;;;;;29.90;18.90;;;;;;;11.82;76.68;100322.56;5095156;28;20035;-56
2021/10/12 07:02:14;;;;;;;30.23;17.35;;;;;;;11.99;75.17;100326.47;5095048;28;20040;-57
2021/10/12 07:04:39;;;;;;;29.73;18.40;;;;;;;12.24;75.85;100334.72;5095307;28;20024;-61
2021/10/12 07:07:05;;;;;;;31.38;18.92;;;;;;;12.45;75.06;100325.28;5095705;28;20107;-61
2021/10/12 07:09:30;;;;;;;33.00;19.35;;;;;;;12.64;74.01;100336.78;5095446;28;20019;-61
2021/10/12 07:11:56;;;;;;;25.45;18.33;;;;;;;12.82;72.69;100324.50;5095750;28;20027;-55
2021/10/12 07:14:21;;;;;;;31.60;19.08;;;;;;;12.97;72.43;100332.38;5095437;28;20411;-61
2021/10/12 07:16:46;;;;;;;27.90;18.23;;;;;;;13.10;70.92;100334.66;5072093;28;20025;-61
2021/10/12 07:19:12;;;;;;;31.05;18.52;;;;;;;13.20;71.19;100337.38;5086631;28;20047;-61
2021/10/12 07:21:37;;;;;;;28.10;18.27;;;;;;;13.30;70.47;100327.97;5077490;28;20111;-57
2021/10/12 07:24:03;;;;;;;30.00;18.08;;;;;;;13.39;69.73;100335.13;5095380;28;20028;-61
2021/10/12 07:26:28;;;;;;;25.88;18.02;;;;;;;13.52;69.40;100333.34;5095635;28;20032;-62
2021/10/12 07:28:56;;;;;;;27.00;16.77;;;;;;;13.59;68.48;100333.25;5094986;28;20031;-61
2021/10/12 07:31:22;;;;;;;31.83;18.48;;;;;;;13.71;68.07;100335.50;5095416;28;20028;-63
2021/10/12 07:33:47;;;;;;;27.67;18.45;;;;;;;13.82;67.84;100338.97;5095156;28;20321;-60
2021/10/12 07:36:12;;;;;;;29.98;17.83;;;;;;;13.88;67.14;100336.44;5095494;28;20106;-62
2021/10/12 07:38:38;;;;;;;28.52;17.10;;;;;;;13.91;66.77;100344.88;5095188;28;20035;-61
2021/10/12 07:41:03;;;;;;;28.63;18.15;;;;;;;13.89;66.59;100346.53;5095110;28;20097;-55
2021/10/12 07:43:28;;;;;;;28.73;18.08;;;;;;;13.88;66.91;100351.38;5095432;28;20031;-61
2021/10/12 07:45:54;;;;;;;28.52;18.50;;;;;;;13.91;67.74;100347.69;5073986;28;20102;-61
2021/10/12 07:48:20;;;;;;;29.48;17.00;;;;;;;13.96;67.20;100343.59;5075065;28;20357;-57
2021/10/12 07:50:47;;;;;;;29.58;17.40;;;;;;;13.99;67.59;100345.56;5075007;28;20025;-61
2021/10/12 07:53:13;;;;;;;27.92;17.35;;;;;;;14.02;66.86;100352.41;5075186;28;20032;-61
2021/10/12 07:55:45;;;;;;;30.77;18.83;;;;;;;14.06;66.81;100347.50;5074926;28;20178;-61
2021/10/12 07:58:11;;;;;;;29.17;19.02;;;;;;;14.10;65.30;100340.53;5074850;28;20035;-61
2021/10/12 08:00:36;;;;;;;25.85;18.77;;;;;;;14.17;66.19;100333.97;5074995;28;20033;-61
2021/10/12 08:03:03;;;;;;;29.73;19.90;;;;;;;14.18;65.22;100327.88;5074728;28;20028;-54
2021/10/12 08:05:29;;;;;;;29.45;19.13;;;;;;;14.23;65.18;100332.25;5074928;28;20029;-61
2021/10/12 08:07:55;;;;;;;30.65;19.40;;;;;;;14.25;64.78;100341.13;5074936;28;20021;-61
2021/10/12 08:10:22;;;;;;;39.13;20.65;;;;;;;14.25;64.26;100340.31;5073684;28;20046;-61
2021/10/12 08:12:51;;;;;;;30.98;19.67;;;;;;;14.28;64.00;100339.47;5078239;28;20459;-61
2021/10/12 08:15:16;;;;;;;30.95;19.42;;;;;;;14.29;64.31;100344.69;5078727;28;20028;-56
2021/10/12 08:17:42;;;;;;;32.67;20.08;;;;;;;14.34;63.19;100338.53;5078320;28;20020;-60
2021/10/12 08:20:08;;;;;;;30.08;19.50;;;;;;;14.37;64.48;100337.69;5078649;28;20025;-56
2021/10/12 08:22:33;;;;;;;33.28;20.70;;;;;;;14.45;63.42;100330.69;5091667;28;20121;-61
2021/10/12 08:24:59;;;;;;;33.60;20.60;;;;;;;14.50;63.21;100332.22;5078062;28;20427;-61
2021/10/12 08:27:24;;;;;;;32.42;20.17;;;;;;;14.57;63.48;100329.28;5077990;28;20023;-56
2021/10/12 08:29:50;;;;;;;32.22;20.70;;;;;;;14.60;63.56;100317.09;5078551;28;20402;-56
2021/10/12 08:32:15;;;;;;;29.17;19.33;;;;;;;14.67;63.47;100324.66;5091278;28;20296;-61
2021/10/12 08:34:40;;;;;;;32.17;19.58;;;;;;;14.68;62.74;100323.44;5078003;28;20046;-56
2021/10/12 08:37:06;;;;;;;31.42;19.52;;;;;;;14.70;61.93;100321.75;5077985;28;20308;-62
2021/10/12 08:39:33;;;;;;;33.97;20.63;;;;;;;14.70;61.64;100318.13;4893550;28;5001157;-61
2021/10/12 08:42:15;;;;;;;33.00;19.88;;;;;;;14.67;62.49;100316.97;5076925;28;20442;-61
2021/10/12 08:45:07;;;;;;;30.58;18.95;;;;;;;14.73;62.42;100311.59;5077930;28;20028;-61
2021/10/12 08:47:34;;;;;;;35.55;20.17;;;;;;;14.77;61.37;100303.84;5091632;28;20040;-57
2021/10/12 08:50:03;;;;;;;34.55;19.73;;;;;;;14.83;60.90;100307.78;5098194;28;20020;-61
2021/10/12 08:52:29;;;;;;;36.88;20.33;;;;;;;14.84;60.08;100310.19;5097938;28;20065;-61
2021/10/12 08:54:55;;;;;;;26.95;18.00;;;;;;;14.89;60.28;100308.88;5097649;28;20020;-61
2021/10/12 08:57:31;;;;;;;29.30;19.30;;;;;;;14.86;59.34;100300.47;5098058;28;20300;-61
2021/10/12 08:59:59;;;;;;;29.55;17.67;;;;;;;14.83;60.34;100302.94;5084061;28;20456;-54
2021/10/12 09:02:26;;;;;;;39.47;18.83;;;;;;;14.82;59.72;100300.53;5097906;28;20047;-61
2021/10/12 09:04:52;;;;;;;28.80;17.77;;;;;;;14.79;59.32;100298.53;5097567;28;20078;-56
2021/10/12 09:07:23;;;;;;;29.23;18.75;;;;;;;14.81;59.43;100299.72;5097599;28;20036;-61
2021/10/12 09:09:50;;;;;;;32.08;19.30;;;;;;;14.89;59.59;100288.28;5097309;28;20024;-61
2021/10/12 09:12:16;;;;;;;32.03;17.85;;;;;;;14.98;58.28;100292.09;5097794;28;20437;-57
2021/10/12 09:14:50;;;;;;;28.65;17.55;;;;;;;15.03;58.26;100291.59;5079622;28;20032;-56
2021/10/12 09:17:28;;;;;;;28.35;17.40;;;;;;;15.12;59.02;100291.81;5079712;28;20024;-61
2021/10/12 09:19:54;;;;;;;36.25;17.83;;;;;;;15.24;58.91;100286.72;5097131;28;20046;-61
2021/10/12 09:22:19;;;;;;;30.30;17.67;;;;;;;15.31;57.27;100286.56;5097160;28;20099;-61
2021/10/12 09:24:48;;;;;;;29.98;17.75;;;;;;;15.35;58.96;100282.44;5097130;28;20020;-55
2021/10/12 09:27:15;;;;;;;31.85;18.92;;;;;;;15.36;58.76;100274.75;5097493;28;20139;-61
2021/10/12 09:29:48;;;;;;;26.45;16.58;;;;;;;15.37;57.42;100279.97;5097254;28;20024;-55
2021/10/12 09:32:14;;;;;;;30.67;19.30;;;;;;;15.40;58.77;100267.75;5079298;28;20057;-57
2021/10/12 09:34:42;;;;;;;37.40;20.08;;;;;;;15.40;58.90;100267.75;5097033;28;20020;-62
2021/10/12 09:37:08;;;;;;;27.48;16.60;;;;;;;15.44;58.49;100257.16;5097307;28;20089;-57
2021/10/12 09:39:46;;;;;;;26.23;16.30;;;;;;;15.48;58.62;100254.22;5096995;28;20024;-57
2021/10/12 09:42:14;;;;;;;27.05;16.13;;;;;;;15.59;58.67;100259.66;5096981;28;20077;-62
2021/10/12 09:44:49;;;;;;;25.92;15.90;;;;;;;15.61;57.38;100260.84;5096897;28;20062;-62
2021/10/12 09:47:15;;;;;;;24.70;14.38;;;;;;;15.69;57.79;100262.25;5096717;28;20443;-57
2021/10/12 09:49:41;;;;;;;19.17;13.55;;;;;;;15.70;55.52;100255.34;5097171;28;20111;-61
2021/10/12 09:52:13;;;;;;;23.58;14.30;;;;;;;15.70;55.93;100255.34;5096814;28;20027;-55
2021/10/12 09:54:48;;;;;;;25.70;14.38;;;;;;;15.71;55.29;100247.66;5096465;28;20020;-61
2021/10/12 09:57:18;;;;;;;21.05;13.65;;;;;;;15.80;57.65;100249.88;5096900;28;20023;-61
2021/10/12 09:59:44;;;;;;;20.75;12.88;;;;;;;15.83;53.53;100232.78;5062588;28;20044;-61
2021/10/12 10:02:23;;;;;;;18.33;11.70;;;;;;;15.76;54.35;100247.13;5096645;28;20031;-61
2021/10/12 10:04:50;;;;;;;19.23;11.30;;;;;;;15.68;54.52;100240.03;5078276;28;20020;-61
2021/10/12 10:07:25;;;;;;;16.23;11.05;;;;;;;15.61;54.47;100235.34;5096253;28;20028;-56
2021/10/12 10:09:57;;;;;;;18.02;9.90;;;;;;;15.63;55.36;100237.75;5096270;28;20372;-61
2021/10/12 10:12:23;;;;;;;16.05;10.30;;;;;;;15.65;54.50;100238.09;5096655;28;20035;-62
2021/10/12 10:14:48;;;;;;;15.45;10.23;;;;;;;15.67;55.63;100233.56;5096002;28;20034;-57
2021/10/12 10:17:15;;;;;;;16.27;9.00;;;;;;;15.75;55.55;100229.31;5096377;28;20024;-61
2021/10/12 10:19:43;;;;;;;15.25;9.63;;;;;;;15.83;53.58;100220.63;5054710;28;20431;-56
2021/10/12 10:22:08;;;;;;;15.30;10.27;;;;;;;15.92;53.16;100223.66;5060067;28;20051;-61
2021/10/12 10:24:33;;;;;;;15.57;9.32;;;;;;;16.02;53.36;100219.75;5055985;28;20030;-61
2021/10/12 10:27:00;;;;;;;14.85;8.52;;;;;;;16.06;52.70;100221.25;5055921;28;20033;-62
2021/10/12 10:29:37;;;;;;;13.77;9.00;;;;;;;16.13;52.66;100217.44;5056205;28;20363;-57
2021/10/12 10:32:22;;;;;;;17.08;9.48;;;;;;;16.15;52.06;100217.78;5056024;28;20061;-57
2021/10/12 10:35:04;;;;;;;19.58;9.50;;;;;;;16.16;52.25;100213.72;5055443;28;20107;-57
2021/10/12 10:37:31;;;;;;;14.38;9.05;;;;;;;16.24;53.08;100211.50;5055511;28;20428;-57
2021/10/12 10:40:27;;;;;;;19.77;9.30;;;;;;;16.37;52.20;100203.81;5055716;28;20039;-62
2021/10/12 10:42:55;;;;;;;15.05;8.77;;;;;;;16.49;51.16;100202.31;5055979;28;20035;-61
2021/10/12 10:45:48;;;;;;;13.82;9.27;;;;;;;16.53;50.45;100195.28;5055769;28;20328;-62
2021/10/12 10:48:16;;;;;;;16.98;8.07;;;;;;;16.42;49.22;100196.81;5055853;28;20091;-62
2021/10/12 10:50:42;;;;;;;11.77;7.75;;;;;;;16.47;49.75;100193.44;5055153;28;20021;-56
2021/10/12 10:53:10;;;;;;;13.07;7.55;;;;;;;16.52;49.55;100190.84;5055942;28;20316;-61
2021/10/12 10:55:37;;;;;;;12.10;7.75;;;;;;;16.60;49.68;100199.94;5055469;28;20360;-57
2021/10/12 10:58:12;;;;;;;13.57;8.23;;;;;;;16.60;49.92;100194.28;5055317;28;20435;-61
2021/10/12 11:00:53;;;;;;;12.32;7.88;;;;;;;16.50;49.35;100192.53;5055450;28;20106;-62
2021/10/12 11:03:28;;;;;;;11.85;7.65;;;;;;;16.38;49.53;100189.19;5041653;28;20025;-62
2021/10/12 11:05:54;;;;;;;12.20;7.80;;;;;;;16.35;49.51;100192.94;5055156;28;20091;-61
2021/10/12 11:08:21;;;;;;;14.07;7.13;;;;;;;16.37;50.41;100184.75;5055146;28;20055;-56
2021/10/12 11:10:58;;;;;;;13.95;7.93;;;;;;;16.34;50.78;100182.03;5055416;28;20032;-62
2021/10/12 11:13:41;;;;;;;13.27;8.02;;;;;;;16.27;50.58;100185.06;5055314;28;20031;-61
2021/10/12 11:16:15;;;;;;;14.77;7.50;;;;;;;16.18;50.00;100174.38;5055403;28;20020;-61